sensor_id;sensor_type;location;lat;lon;timestamp;pressure;altitude;pressure_sealevel;temperature;humidity
48668;BME280;34453;52.198;5.004;2022-08-05T00:01:55;101752.34;;;19.77;100.00
48668;BME280;34453;52.198;5.004;2022-08-05T00:04:20;101764.13;;;19.74;100.00
48668;BME280;34453;52.198;5.004;2022-08-05T00:06:46;101770.47;;;19.73;100.00
48668;BME280;34453;52.198;5.004;2022-08-05T00:09:11;101747.75;;;19.71;100.00
48668;BME280;34453;52.198;5.004;2022-08-05T00:11:37;101762.84;;;19.70;100.00
48668;BME280;34453;52.198;5.004;2022-08-05T00:14:03;101758.19;;;19.72;100.00
48668;BME280;34453;52.198;5.004;2022-08-05T00:16:28;101744.56;;;19.75;100.00
48668;BME280;34453;52.198;5.004;2022-08-05T00:18:53;101747.75;;;19.71;100.00
48668;BME280;34453;52.198;5.004;2022-08-05T00:21:19;101738.13;;;19.70;100.00
48668;BME280;34453;52.198;5.004;2022-08-05T00:23:46;101746.41;;;19.66;100.00
48668;BME280;34453;52.198;5.004;2022-08-05T00:26:13;101741.00;;;19.60;100.00
48668;BME280;34453;52.198;5.004;2022-08-05T00:28:39;101737.34;;;19.61;100.00
48668;BME280;34453;52.198;5.004;2022-08-05T00:31:05;101742.19;;;19.57;100.00
48668;BME280;34453;52.198;5.004;2022-08-05T00:33:31;101733.41;;;19.57;100.00
48668;BME280;34453;52.198;5.004;2022-08-05T00:35:57;101736.88;;;19.57;100.00
48668;BME280;34453;52.198;5.004;2022-08-05T00:38:23;101746.59;;;19.65;100.00
48668;BME280;34453;52.198;5.004;2022-08-05T00:40:53;101744.97;;;19.64;100.00
48668;BME280;34453;52.198;5.004;2022-08-05T00:43:19;101747.97;;;19.61;100.00
48668;BME280;34453;52.198;5.004;2022-08-05T00:45:46;101745.66;;;19.58;100.00
48668;BME280;34453;52.198;5.004;2022-08-05T00:48:17;101748.31;;;19.58;100.00
48668;BME280;34453;52.198;5.004;2022-08-05T00:50:46;101752.31;;;19.54;100.00
48668;BME280;34453;52.198;5.004;2022-08-05T00:53:13;101749.88;;;19.52;100.00
48668;BME280;34453;52.198;5.004;2022-08-05T00:55:41;101749.38;;;19.49;100.00
48668;BME280;34453;52.198;5.004;2022-08-05T00:58:07;101748.47;;;19.41;100.00
48668;BME280;34453;52.198;5.004;2022-08-05T01:00:32;101747.44;;;19.42;100.00
48668;BME280;34453;52.198;5.004;2022-08-05T01:02:58;101737.34;;;19.38;100.00
48668;BME280;34453;52.198;5.004;2022-08-05T01:05:24;101740.94;;;19.45;100.00
48668;BME280;34453;52.198;5.004;2022-08-05T01:07:50;101747.28;;;19.44;100.00
48668;BME280;34453;52.198;5.004;2022-08-05T01:10:18;101748.78;;;19.38;100.00
48668;BME280;34453;52.198;5.004;2022-08-05T01:12:47;101750.91;;;19.43;100.00
48668;BME280;34453;52.198;5.004;2022-08-05T01:15:21;101760.25;;;19.39;100.00
48668;BME280;34453;52.198;5.004;2022-08-05T01:17:59;101746.78;;;19.40;100.00
48668;BME280;34453;52.198;5.004;2022-08-05T01:20:41;101751.44;;;19.38;100.00
48668;BME280;34453;52.198;5.004;2022-08-05T01:26:20;101762.72;;;19.40;100.00
48668;BME280;34453;52.198;5.004;2022-08-05T01:28:56;101753.66;;;19.35;100.00
48668;BME280;34453;52.198;5.004;2022-08-05T01:31:38;101763.44;;;19.34;100.00
48668;BME280;34453;52.198;5.004;2022-08-05T01:34:09;101766.09;;;19.34;100.00
48668;BME280;34453;52.198;5.004;2022-08-05T01:36:43;101772.75;;;19.30;100.00
48668;BME280;34453;52.198;5.004;2022-08-05T01:39:12;101771.44;;;19.26;100.00
48668;BME280;34453;52.198;5.004;2022-08-05T01:41:41;101765.66;;;19.22;100.00
48668;BME280;34453;52.198;5.004;2022-08-05T01:44:08;101762.84;;;19.24;100.00
48668;BME280;34453;52.198;5.004;2022-08-05T01:46:35;101771.44;;;19.26;100.00
48668;BME280;34453;52.198;5.004;2022-08-05T01:49:02;101773.09;;;19.27;100.00
48668;BME280;34453;52.198;5.004;2022-08-05T01:51:34;101782.75;;;19.20;100.00
48668;BME280;34453;52.198;5.004;2022-08-05T01:54:02;101779.44;;;19.18;100.00
48668;BME280;34453;52.198;5.004;2022-08-05T01:56:31;101777.44;;;19.20;100.00
48668;BME280;34453;52.198;5.004;2022-08-05T01:58:57;101785.09;;;19.15;100.00
48668;BME280;34453;52.198;5.004;2022-08-05T02:01:25;101782.63;;;19.13;100.00
48668;BME280;34453;52.198;5.004;2022-08-05T02:03:52;101768.72;;;19.11;100.00
48668;BME280;34453;52.198;5.004;2022-08-05T02:06:19;101772.84;;;19.14;100.00
48668;BME280;34453;52.198;5.004;2022-08-05T02:08:45;101778.78;;;19.16;100.00
48668;BME280;34453;52.198;5.004;2022-08-05T02:11:13;101781.81;;;19.13;100.00
48668;BME280;34453;52.198;5.004;2022-08-05T02:16:18;101761.50;;;18.97;100.00
48668;BME280;34453;52.198;5.004;2022-08-05T02:18:51;101762.47;;;19.04;100.00
48668;BME280;34453;52.198;5.004;2022-08-05T02:21:24;101767.28;;;19.00;100.00
48668;BME280;34453;52.198;5.004;2022-08-05T02:23:54;101770.81;;;18.93;100.00
48668;BME280;34453;52.198;5.004;2022-08-05T02:26:27;101769.63;;;18.95;100.00
48668;BME280;34453;52.198;5.004;2022-08-05T02:28:58;101757.72;;;18.91;100.00
48668;BME280;34453;52.198;5.004;2022-08-05T02:31:29;101753.06;;;18.93;100.00
48668;BME280;34453;52.198;5.004;2022-08-05T02:34:03;101754.91;;;18.93;100.00
48668;BME280;34453;52.198;5.004;2022-08-05T02:36:31;101763.00;;;18.91;100.00
48668;BME280;34453;52.198;5.004;2022-08-05T02:39:00;101760.38;;;18.91;100.00
48668;BME280;34453;52.198;5.004;2022-08-05T02:41:27;101767.50;;;18.91;100.00
48668;BME280;34453;52.198;5.004;2022-08-05T02:43:54;101762.06;;;18.84;100.00
48668;BME280;34453;52.198;5.004;2022-08-05T02:46:21;101750.81;;;18.82;100.00
48668;BME280;34453;52.198;5.004;2022-08-05T02:48:47;101755.44;;;18.80;100.00
48668;BME280;34453;52.198;5.004;2022-08-05T02:51:14;101765.72;;;18.75;100.00
48668;BME280;34453;52.198;5.004;2022-08-05T02:53:41;101762.06;;;18.76;100.00
48668;BME280;34453;52.198;5.004;2022-08-05T02:56:09;101761.06;;;18.77;100.00
48668;BME280;34453;52.198;5.004;2022-08-05T02:58:37;101755.28;;;18.73;100.00
48668;BME280;34453;52.198;5.004;2022-08-05T03:01:05;101756.94;;;18.74;100.00
48668;BME280;34453;52.198;5.004;2022-08-05T03:03:32;101759.94;;;18.71;100.00
48668;BME280;34453;52.198;5.004;2022-08-05T03:05:59;101758.28;;;18.70;100.00
48668;BME280;34453;52.198;5.004;2022-08-05T03:08:25;101761.13;;;18.60;100.00
48668;BME280;34453;52.198;5.004;2022-08-05T03:10:51;101763.78;;;18.60;100.00
48668;BME280;34453;52.198;5.004;2022-08-05T03:13:16;101759.81;;;18.56;100.00
48668;BME280;34453;52.198;5.004;2022-08-05T03:15:46;101754.03;;;18.61;100.00
48668;BME280;34453;52.198;5.004;2022-08-05T03:18:12;101750.19;;;18.63;100.00
48668;BME280;34453;52.198;5.004;2022-08-05T03:20:38;101755.81;;;18.60;100.00
48668;BME280;34453;52.198;5.004;2022-08-05T03:23:06;101761.84;;;18.54;100.00
48668;BME280;34453;52.198;5.004;2022-08-05T03:25:33;101765.31;;;18.55;100.00
48668;BME280;34453;52.198;5.004;2022-08-05T03:28:02;101768.63;;;18.57;100.00
48668;BME280;34453;52.198;5.004;2022-08-05T03:30:29;101780.38;;;18.54;100.00
48668;BME280;34453;52.198;5.004;2022-08-05T03:32:57;101773.41;;;18.53;100.00
48668;BME280;34453;52.198;5.004;2022-08-05T03:35:24;101775.41;;;18.51;100.00
48668;BME280;34453;52.198;5.004;2022-08-05T03:37:50;101774.75;;;18.49;100.00
48668;BME280;34453;52.198;5.004;2022-08-05T03:40:15;101777.09;;;18.44;100.00
48668;BME280;34453;52.198;5.004;2022-08-05T03:42:41;101767.47;;;18.43;100.00
48668;BME280;34453;52.198;5.004;2022-08-05T03:45:07;101761.22;;;18.36;100.00
48668;BME280;34453;52.198;5.004;2022-08-05T03:47:33;101761.88;;;18.38;100.00
48668;BME280;34453;52.198;5.004;2022-08-05T03:49:58;101757.25;;;18.32;100.00
48668;BME280;34453;52.198;5.004;2022-08-05T03:52:28;101757.25;;;18.32;100.00
48668;BME280;34453;52.198;5.004;2022-08-05T03:55:01;101757.25;;;18.32;100.00
48668;BME280;34453;52.198;5.004;2022-08-05T03:57:29;101768.53;;;18.26;100.00
48668;BME280;34453;52.198;5.004;2022-08-05T04:00:03;101782.94;;;18.23;100.00
48668;BME280;34453;52.198;5.004;2022-08-05T04:02:31;101795.69;;;18.19;100.00
48668;BME280;34453;52.198;5.004;2022-08-05T04:05:03;101794.38;;;18.15;100.00
48668;BME280;34453;52.198;5.004;2022-08-05T04:07:30;101799.16;;;18.12;100.00
48668;BME280;34453;52.198;5.004;2022-08-05T04:09:56;101795.03;;;18.09;100.00
48668;BME280;34453;52.198;5.004;2022-08-05T04:12:22;101797.38;;;18.04;100.00
48668;BME280;34453;52.198;5.004;2022-08-05T04:14:48;101790.44;;;18.03;100.00
48668;BME280;34453;52.198;5.004;2022-08-05T04:17:13;101793.41;;;18.08;100.00
48668;BME280;34453;52.198;5.004;2022-08-05T04:19:46;101794.56;;;18.06;100.00
48668;BME280;34453;52.198;5.004;2022-08-05T04:22:12;101795.22;;;17.99;100.00
48668;BME280;34453;52.198;5.004;2022-08-05T04:24:43;101787.28;;;17.99;100.00
48668;BME280;34453;52.198;5.004;2022-08-05T04:27:09;101783.81;;;17.91;100.00
48668;BME280;34453;52.198;5.004;2022-08-05T04:29:35;101785.28;;;17.77;100.00
48668;BME280;34453;52.198;5.004;2022-08-05T04:32:00;101778.31;;;17.76;100.00
48668;BME280;34453;52.198;5.004;2022-08-05T04:34:26;101780.81;;;17.77;100.00
48668;BME280;34453;52.198;5.004;2022-08-05T04:36:51;101780.81;;;17.77;100.00
48668;BME280;34453;52.198;5.004;2022-08-05T04:39:18;101791.53;;;17.76;100.00
48668;BME280;34453;52.198;5.004;2022-08-05T04:41:44;101787.09;;;17.76;100.00
48668;BME280;34453;52.198;5.004;2022-08-05T04:44:09;101779.47;;;17.65;100.00
48668;BME280;34453;52.198;5.004;2022-08-05T04:46:34;101787.25;;;17.67;100.00
48668;BME280;34453;52.198;5.004;2022-08-05T04:49:00;101791.38;;;17.69;100.00
48668;BME280;34453;52.198;5.004;2022-08-05T04:51:25;101790.72;;;17.67;100.00
48668;BME280;34453;52.198;5.004;2022-08-05T04:53:51;101788.56;;;17.63;100.00
48668;BME280;34453;52.198;5.004;2022-08-05T04:56:16;101795.00;;;17.60;100.00
48668;BME280;34453;52.198;5.004;2022-08-05T04:58:42;101793.38;;;17.59;100.00
48668;BME280;34453;52.198;5.004;2022-08-05T05:01:08;101796.16;;;17.57;100.00
48668;BME280;34453;52.198;5.004;2022-08-05T05:03:33;101793.69;;;17.56;100.00
48668;BME280;34453;52.198;5.004;2022-08-05T05:05:59;101797.00;;;17.50;100.00
48668;BME280;34453;52.198;5.004;2022-08-05T05:08:24;101801.63;;;17.48;100.00
48668;BME280;34453;52.198;5.004;2022-08-05T05:10:50;101794.19;;;17.43;100.00
48668;BME280;34453;52.198;5.004;2022-08-05T05:13:16;101792.34;;;17.35;100.00
48668;BME280;34453;52.198;5.004;2022-08-05T05:15:43;101793.97;;;17.28;100.00
48668;BME280;34453;52.198;5.004;2022-08-05T05:18:13;101801.09;;;17.28;100.00
48668;BME280;34453;52.198;5.004;2022-08-05T05:20:42;101790.50;;;17.36;100.00
48668;BME280;34453;52.198;5.004;2022-08-05T05:23:08;101797.97;;;17.49;100.00
48668;BME280;34453;52.198;5.004;2022-08-05T05:25:34;101787.75;;;17.62;100.00
48668;BME280;34453;52.198;5.004;2022-08-05T05:27:59;101798.50;;;17.69;100.00
48668;BME280;34453;52.198;5.004;2022-08-05T05:30:25;101805.63;;;17.76;100.00
48668;BME280;34453;52.198;5.004;2022-08-05T05:32:50;101792.75;;;17.81;100.00
48668;BME280;34453;52.198;5.004;2022-08-05T05:35:16;101800.69;;;17.90;100.00
48668;BME280;34453;52.198;5.004;2022-08-05T05:37:49;101802.50;;;17.89;100.00
48668;BME280;34453;52.198;5.004;2022-08-05T05:40:16;101808.97;;;17.95;100.00
48668;BME280;34453;52.198;5.004;2022-08-05T05:42:42;101807.44;;;18.00;100.00
48668;BME280;34453;52.198;5.004;2022-08-05T05:45:08;101795.38;;;18.06;100.00
48668;BME280;34453;52.198;5.004;2022-08-05T05:47:34;101803.63;;;18.11;100.00
48668;BME280;34453;52.198;5.004;2022-08-05T05:50:00;101791.56;;;18.17;100.00
48668;BME280;34453;52.198;5.004;2022-08-05T05:52:26;101805.94;;;18.22;100.00
48668;BME280;34453;52.198;5.004;2022-08-05T05:54:51;101797.69;;;18.26;100.00
48668;BME280;34453;52.198;5.004;2022-08-05T05:57:17;101795.34;;;18.31;100.00
48668;BME280;34453;52.198;5.004;2022-08-05T05:59:42;101800.63;;;18.39;100.00
48668;BME280;34453;52.198;5.004;2022-08-05T06:02:08;101792.34;;;18.42;100.00
48668;BME280;34453;52.198;5.004;2022-08-05T06:04:33;101785.69;;;18.46;100.00
48668;BME280;34453;52.198;5.004;2022-08-05T06:06:59;101785.19;;;18.51;100.00
48668;BME280;34453;52.198;5.004;2022-08-05T06:09:24;101783.81;;;18.63;100.00
48668;BME280;34453;52.198;5.004;2022-08-05T06:11:50;101786.94;;;18.67;100.00
48668;BME280;34453;52.198;5.004;2022-08-05T06:14:15;101781.44;;;18.76;100.00
48668;BME280;34453;52.198;5.004;2022-08-05T06:16:40;101793.56;;;18.79;100.00
48668;BME280;34453;52.198;5.004;2022-08-05T06:19:06;101791.91;;;18.78;100.00
48668;BME280;34453;52.198;5.004;2022-08-05T06:21:31;101788.41;;;18.86;100.00
48668;BME280;34453;52.198;5.004;2022-08-05T06:23:57;101793.19;;;18.90;100.00
48668;BME280;34453;52.198;5.004;2022-08-05T06:26:24;101799.16;;;18.92;100.00
48668;BME280;34453;52.198;5.004;2022-08-05T06:28:49;101796.78;;;18.97;100.00
48668;BME280;34453;52.198;5.004;2022-08-05T06:31:15;101806.88;;;19.02;100.00
48668;BME280;34453;52.198;5.004;2022-08-05T06:33:41;101803.72;;;19.07;100.00
48668;BME280;34453;52.198;5.004;2022-08-05T06:36:06;101806.00;;;19.10;100.00
48668;BME280;34453;52.198;5.004;2022-08-05T06:38:32;101809.94;;;19.22;100.00
48668;BME280;34453;52.198;5.004;2022-08-05T06:40:57;101812.59;;;19.22;100.00
48668;BME280;34453;52.198;5.004;2022-08-05T06:43:23;101811.88;;;19.28;100.00
48668;BME280;34453;52.198;5.004;2022-08-05T06:45:48;101818.19;;;19.27;100.00
48668;BME280;34453;52.198;5.004;2022-08-05T06:48:14;101810.41;;;19.25;100.00
48668;BME280;34453;52.198;5.004;2022-08-05T06:50:39;101827.13;;;19.34;100.00
48668;BME280;34453;52.198;5.004;2022-08-05T06:53:04;101823.09;;;19.38;100.00
48668;BME280;34453;52.198;5.004;2022-08-05T06:55:30;101829.38;;;19.45;100.00
48668;BME280;34453;52.198;5.004;2022-08-05T06:57:55;101823.16;;;19.53;100.00
48668;BME280;34453;52.198;5.004;2022-08-05T07:00:21;101822.81;;;19.56;100.00
48668;BME280;34453;52.198;5.004;2022-08-05T07:02:46;101831.16;;;19.76;100.00
48668;BME280;34453;52.198;5.004;2022-08-05T07:05:13;101818.53;;;19.78;100.00
48668;BME280;34453;52.198;5.004;2022-08-05T07:07:39;101823.13;;;19.84;100.00
48668;BME280;34453;52.198;5.004;2022-08-05T07:10:06;101823.13;;;19.84;100.00
48668;BME280;34453;52.198;5.004;2022-08-05T07:12:32;101822.75;;;19.87;100.00
48668;BME280;34453;52.198;5.004;2022-08-05T07:15:16;101828.00;;;19.96;100.00
48668;BME280;34453;52.198;5.004;2022-08-05T07:18:21;101834.91;;;20.05;100.00
48668;BME280;34453;52.198;5.004;2022-08-05T07:20:46;101821.56;;;20.13;100.00
48668;BME280;34453;52.198;5.004;2022-08-05T07:23:12;101837.78;;;20.18;100.00
48668;BME280;34453;52.198;5.004;2022-08-05T07:25:37;101839.88;;;20.23;100.00
48668;BME280;34453;52.198;5.004;2022-08-05T07:28:03;101847.94;;;20.29;100.00
48668;BME280;34453;52.198;5.004;2022-08-05T07:30:33;101841.38;;;20.25;100.00
48668;BME280;34453;52.198;5.004;2022-08-05T07:33:00;101845.22;;;20.38;100.00
48668;BME280;34453;52.198;5.004;2022-08-05T07:35:26;101844.50;;;20.44;100.00
48668;BME280;34453;52.198;5.004;2022-08-05T07:37:51;101855.06;;;20.52;100.00
48668;BME280;34453;52.198;5.004;2022-08-05T07:40:16;101851.97;;;20.63;100.00
48668;BME280;34453;52.198;5.004;2022-08-05T07:42:42;101855.09;;;20.67;100.00
48668;BME280;34453;52.198;5.004;2022-08-05T07:45:08;101859.84;;;20.86;100.00
48668;BME280;34453;52.198;5.004;2022-08-05T07:47:33;101866.16;;;21.00;100.00
48668;BME280;34453;52.198;5.004;2022-08-05T07:49:59;101868.09;;;21.06;100.00
48668;BME280;34453;52.198;5.004;2022-08-05T07:52:24;101862.66;;;21.15;100.00
48668;BME280;34453;52.198;5.004;2022-08-05T07:54:50;101858.22;;;21.37;100.00
48668;BME280;34453;52.198;5.004;2022-08-05T07:57:15;101866.56;;;21.48;100.00
48668;BME280;34453;52.198;5.004;2022-08-05T07:59:40;101871.38;;;21.60;100.00
48668;BME280;34453;52.198;5.004;2022-08-05T08:02:09;101871.34;;;21.75;100.00
48668;BME280;34453;52.198;5.004;2022-08-05T08:04:35;101878.72;;;22.01;100.00
48668;BME280;34453;52.198;5.004;2022-08-05T08:07:00;101877.34;;;22.26;100.00
48668;BME280;34453;52.198;5.004;2022-08-05T08:09:26;101891.13;;;22.37;100.00
48668;BME280;34453;52.198;5.004;2022-08-05T08:11:52;101887.91;;;22.20;100.00
48668;BME280;34453;52.198;5.004;2022-08-05T08:14:18;101886.47;;;22.17;100.00
48668;BME280;34453;52.198;5.004;2022-08-05T08:16:43;101890.59;;;22.20;100.00
48668;BME280;34453;52.198;5.004;2022-08-05T08:19:09;101897.31;;;22.15;100.00
48668;BME280;34453;52.198;5.004;2022-08-05T08:21:34;101888.75;;;22.20;100.00
48668;BME280;34453;52.198;5.004;2022-08-05T08:23:59;101895.41;;;22.09;100.00
48668;BME280;34453;52.198;5.004;2022-08-05T08:26:25;101900.75;;;22.09;100.00
48668;BME280;34453;52.198;5.004;2022-08-05T08:28:51;101913.25;;;22.09;100.00
48668;BME280;34453;52.198;5.004;2022-08-05T08:31:16;101912.72;;;21.99;100.00
48668;BME280;34453;52.198;5.004;2022-08-05T08:33:45;101902.97;;;21.84;100.00
48668;BME280;34453;52.198;5.004;2022-08-05T08:36:10;101918.56;;;21.66;100.00
48668;BME280;34453;52.198;5.004;2022-08-05T08:38:36;101917.41;;;21.53;100.00
48668;BME280;34453;52.198;5.004;2022-08-05T08:41:06;101911.97;;;21.62;100.00
48668;BME280;34453;52.198;5.004;2022-08-05T08:43:35;101921.97;;;21.60;100.00
48668;BME280;34453;52.198;5.004;2022-08-05T08:46:02;101924.16;;;21.71;100.00
48668;BME280;34453;52.198;5.004;2022-08-05T08:48:29;101921.09;;;21.52;100.00
48668;BME280;34453;52.198;5.004;2022-08-05T08:50:55;101924.81;;;21.58;100.00
48668;BME280;34453;52.198;5.004;2022-08-05T08:53:23;101920.94;;;21.61;100.00
48668;BME280;34453;52.198;5.004;2022-08-05T08:55:51;101928.16;;;21.82;100.00
48668;BME280;34453;52.198;5.004;2022-08-05T08:58:17;101928.78;;;21.84;100.00
48668;BME280;34453;52.198;5.004;2022-08-05T09:00:42;101919.72;;;21.78;100.00
48668;BME280;34453;52.198;5.004;2022-08-05T09:03:09;101928.09;;;21.75;100.00
48668;BME280;34453;52.198;5.004;2022-08-05T09:05:38;101933.78;;;21.72;100.00
48668;BME280;34453;52.198;5.004;2022-08-05T09:08:03;101942.31;;;21.67;100.00
48668;BME280;34453;52.198;5.004;2022-08-05T09:10:29;101946.84;;;21.67;100.00
48668;BME280;34453;52.198;5.004;2022-08-05T09:12:55;101945.47;;;21.56;100.00
48668;BME280;34453;52.198;5.004;2022-08-05T09:15:21;101945.78;;;21.46;100.00
48668;BME280;34453;52.198;5.004;2022-08-05T09:17:47;101947.59;;;21.31;100.00
48668;BME280;34453;52.198;5.004;2022-08-05T09:20:13;101946.16;;;21.28;100.00
48668;BME280;34453;52.198;5.004;2022-08-05T09:23:07;101956.44;;;21.17;100.00
48668;BME280;34453;52.198;5.004;2022-08-05T09:25:36;101959.09;;;21.17;100.00
48668;BME280;34453;52.198;5.004;2022-08-05T09:28:13;101962.75;;;21.16;100.00
48668;BME280;34453;52.198;5.004;2022-08-05T09:31:10;101963.78;;;21.15;100.00
48668;BME280;34453;52.198;5.004;2022-08-05T09:33:48;101964.69;;;21.07;100.00
48668;BME280;34453;52.198;5.004;2022-08-05T09:36:14;101969.38;;;21.20;100.00
48668;BME280;34453;52.198;5.004;2022-08-05T09:38:57;101964.78;;;21.28;100.00
48668;BME280;34453;52.198;5.004;2022-08-05T09:41:25;101970.66;;;21.24;100.00
48668;BME280;34453;52.198;5.004;2022-08-05T09:43:51;101971.94;;;21.28;100.00
48668;BME280;34453;52.198;5.004;2022-08-05T09:46:31;101978.72;;;21.30;100.00
48668;BME280;34453;52.198;5.004;2022-08-05T09:48:58;101981.09;;;21.25;100.00
48668;BME280;34453;52.198;5.004;2022-08-05T09:51:35;101988.00;;;21.20;100.00
48668;BME280;34453;52.198;5.004;2022-08-05T09:54:06;101987.53;;;21.16;100.00
48668;BME280;34453;52.198;5.004;2022-08-05T09:56:36;101988.56;;;21.30;100.00
48668;BME280;34453;52.198;5.004;2022-08-05T09:59:10;101986.41;;;21.40;100.00
48668;BME280;34453;52.198;5.004;2022-08-05T10:01:40;101998.25;;;21.23;100.00
48668;BME280;34453;52.198;5.004;2022-08-05T10:04:11;101999.00;;;21.17;100.00
48668;BME280;34453;52.198;5.004;2022-08-05T10:06:42;102002.59;;;21.24;100.00
48668;BME280;34453;52.198;5.004;2022-08-05T10:09:18;102000.28;;;21.36;100.00
48668;BME280;34453;52.198;5.004;2022-08-05T10:11:46;102007.28;;;21.22;100.00
48668;BME280;34453;52.198;5.004;2022-08-05T10:14:28;102009.09;;;21.06;100.00
48668;BME280;34453;52.198;5.004;2022-08-05T10:16:56;102012.13;;;21.03;100.00
48668;BME280;34453;52.198;5.004;2022-08-05T10:19:36;102018.97;;;20.98;100.00
48668;BME280;34453;52.198;5.004;2022-08-05T10:22:01;102025.22;;;20.90;100.00
48668;BME280;34453;52.198;5.004;2022-08-05T10:24:27;102020.97;;;20.81;100.00
48668;BME280;34453;52.198;5.004;2022-08-05T10:26:53;102020.75;;;20.67;100.00
48668;BME280;34453;52.198;5.004;2022-08-05T10:29:20;102033.63;;;20.79;100.00
48668;BME280;34453;52.198;5.004;2022-08-05T10:31:46;102021.97;;;20.80;100.00
48668;BME280;34453;52.198;5.004;2022-08-05T10:34:12;102023.81;;;20.79;100.00
48668;BME280;34453;52.198;5.004;2022-08-05T10:36:40;102034.91;;;20.83;100.00
48668;BME280;34453;52.198;5.004;2022-08-05T10:39:27;102032.91;;;20.85;100.00
48668;BME280;34453;52.198;5.004;2022-08-05T10:42:06;102034.41;;;21.02;100.00
48668;BME280;34453;52.198;5.004;2022-08-05T10:44:35;102033.69;;;20.70;100.00
48668;BME280;34453;52.198;5.004;2022-08-05T10:47:10;102037.09;;;20.56;100.00
48668;BME280;34453;52.198;5.004;2022-08-05T10:49:59;102047.06;;;20.54;100.00
48668;BME280;34453;52.198;5.004;2022-08-05T10:52:45;102049.88;;;20.61;100.00
48668;BME280;34453;52.198;5.004;2022-08-05T10:55:25;102048.06;;;20.61;100.00
48668;BME280;34453;52.198;5.004;2022-08-05T10:58:08;102053.25;;;20.78;100.00
48668;BME280;34453;52.198;5.004;2022-08-05T11:00:34;102055.91;;;20.78;100.00
48668;BME280;34453;52.198;5.004;2022-08-05T11:05:33;102060.41;;;20.77;100.00
48668;BME280;34453;52.198;5.004;2022-08-05T11:08:02;102074.63;;;20.84;100.00
48668;BME280;34453;52.198;5.004;2022-08-05T11:10:29;102076.31;;;20.85;100.00
48668;BME280;34453;52.198;5.004;2022-08-05T11:12:57;102070.50;;;20.82;100.00
48668;BME280;34453;52.198;5.004;2022-08-05T11:15:28;102065.78;;;20.92;100.00
48668;BME280;34453;52.198;5.004;2022-08-05T11:18:25;102076.69;;;20.97;100.00
48668;BME280;34453;52.198;5.004;2022-08-05T11:20:52;102076.84;;;20.96;100.00
48668;BME280;34453;52.198;5.004;2022-08-05T11:28:53;102098.22;;;20.64;100.00
48668;BME280;34453;52.198;5.004;2022-08-05T11:31:24;102104.56;;;20.55;100.00
48668;BME280;34453;52.198;5.004;2022-08-05T11:34:03;102105.00;;;20.67;100.00
48668;BME280;34453;52.198;5.004;2022-08-05T11:36:48;102105.44;;;20.47;100.00
48668;BME280;34453;52.198;5.004;2022-08-05T11:39:45;102120.56;;;20.47;100.00
48668;BME280;34453;52.198;5.004;2022-08-05T11:42:02;102121.50;;;20.31;100.00
48668;BME280;34453;52.198;5.004;2022-08-05T11:44:35;102118.19;;;20.29;100.00
48668;BME280;34453;52.198;5.004;2022-08-05T11:47:01;102122.81;;;19.96;100.00
48668;BME280;34453;52.198;5.004;2022-08-05T11:49:27;102125.13;;;19.99;100.00
48668;BME280;34453;52.198;5.004;2022-08-05T11:51:52;102131.22;;;20.07;100.00
48668;BME280;34453;52.198;5.004;2022-08-05T11:54:29;102128.69;;;20.14;100.00
48668;BME280;34453;52.198;5.004;2022-08-05T11:56:57;102130.06;;;20.10;100.00
48668;BME280;34453;52.198;5.004;2022-08-05T11:59:28;102131.34;;;20.14;100.00
48668;BME280;34453;52.198;5.004;2022-08-05T12:01:56;102135.56;;;20.40;100.00
48668;BME280;34453;52.198;5.004;2022-08-05T12:04:22;102138.63;;;20.28;100.00
48668;BME280;34453;52.198;5.004;2022-08-05T12:06:48;102141.50;;;20.50;100.00
48668;BME280;34453;52.198;5.004;2022-08-05T12:09:22;102141.13;;;20.84;100.00
48668;BME280;34453;52.198;5.004;2022-08-05T12:11:49;102140.56;;;21.12;100.00
48668;BME280;34453;52.198;5.004;2022-08-05T12:14:15;102143.25;;;21.50;100.00
48668;BME280;34453;52.198;5.004;2022-08-05T12:16:41;102135.34;;;21.71;100.00
48668;BME280;34453;52.198;5.004;2022-08-05T12:19:09;102147.56;;;21.96;100.00
48668;BME280;34453;52.198;5.004;2022-08-05T12:21:48;102142.22;;;22.25;100.00
48668;BME280;34453;52.198;5.004;2022-08-05T12:24:19;102139.19;;;22.13;100.00
48668;BME280;34453;52.198;5.004;2022-08-05T12:26:49;102150.97;;;22.04;100.00
48668;BME280;34453;52.198;5.004;2022-08-05T12:29:19;102155.81;;;22.01;100.00
48668;BME280;34453;52.198;5.004;2022-08-05T12:31:53;102150.50;;;22.30;100.00
48668;BME280;34453;52.198;5.004;2022-08-05T12:34:21;102165.28;;;22.69;100.00
48668;BME280;34453;52.198;5.004;2022-08-05T12:36:49;102158.16;;;22.76;100.00
48668;BME280;34453;52.198;5.004;2022-08-05T12:39:16;102160.34;;;22.30;100.00
48668;BME280;34453;52.198;5.004;2022-08-05T12:41:42;102161.31;;;22.44;100.00
48668;BME280;34453;52.198;5.004;2022-08-05T12:44:10;102165.53;;;22.53;100.00
48668;BME280;34453;52.198;5.004;2022-08-05T12:46:37;102173.84;;;22.28;100.00
48668;BME280;34453;52.198;5.004;2022-08-05T12:49:11;102173.84;;;22.13;100.00
48668;BME280;34453;52.198;5.004;2022-08-05T12:51:58;102173.78;;;22.22;100.00
48668;BME280;34453;52.198;5.004;2022-08-05T12:54:29;102162.88;;;22.74;100.00
48668;BME280;34453;52.198;5.004;2022-08-05T12:57:03;102170.91;;;23.17;100.00
48668;BME280;34453;52.198;5.004;2022-08-05T12:59:31;102174.94;;;23.35;100.00
48668;BME280;34453;52.198;5.004;2022-08-05T13:02:04;102184.31;;;23.81;100.00